Time;durP1;ratioP1;P1;durP2;ratioP2;P2;SDS_P1;SDS_P2;PMS_P1;PMS_P2;Temp;Humidity;BMP_temperature;BMP_pressure;BME280_temperature;BME280_humidity;BME280_pressure;Samples;Min_cycle;Max_cycle;Signal;HPM_P1;HPM_P2
2021/08/13 00:01:44;;;;;;;10.53;5.08;;;;;;;15.21;66.52;97394.48;127960;1090;27222;-82
2021/08/13 00:04:16;;;;;;;6.58;5.28;;;;;;;15.22;66.16;97401.41;127963;1090;25829;-83
2021/08/13 00:06:47;;;;;;;6.43;4.80;;;;;;;15.19;66.41;97399.29;127968;1090;24975;-82
2021/08/13 00:09:21;;;;;;;6.08;4.95;;;;;;;15.18;66.60;97398.50;127922;1090;32892;-82
2021/08/13 00:11:54;;;;;;;8.03;5.95;;;;;;;15.24;66.59;97389.34;127938;1090;24792;-82
2021/08/13 00:14:25;;;;;;;7.38;5.43;;;;;;;15.23;66.66;97387.76;127975;1090;29780;-83
2021/08/13 00:16:57;;;;;;;6.90;5.58;;;;;;;15.24;66.63;97384.00;128050;1089;27251;-81
2021/08/13 00:19:29;;;;;;;7.30;5.08;;;;;;;15.19;66.64;97384.05;127990;1090;30019;-82
2021/08/13 00:22:00;;;;;;;6.45;5.60;;;;;;;15.05;66.82;97383.98;128001;1090;27723;-82
2021/08/13 00:24:31;;;;;;;8.05;5.80;;;;;;;15.00;66.97;97392.06;128033;1090;28316;-83
2021/08/13 00:27:02;;;;;;;8.00;5.10;;;;;;;15.07;66.93;97397.07;127985;1090;28203;-82
2021/08/13 00:29:35;;;;;;;7.33;5.13;;;;;;;15.19;66.84;97400.08;127957;1090;39477;-82
2021/08/13 00:32:07;;;;;;;6.03;5.13;;;;;;;15.26;66.83;97400.53;127920;1090;28156;-82
2021/08/13 00:34:39;;;;;;;6.78;4.88;;;;;;;15.34;66.67;97405.24;127965;1090;26549;-83
2021/08/13 00:37:11;;;;;;;6.90;5.30;;;;;;;15.38;66.70;97408.91;128057;1090;30316;-82
2021/08/13 00:39:42;;;;;;;7.43;5.38;;;;;;;15.45;66.61;97412.00;127921;1090;30778;-83
2021/08/13 00:42:13;;;;;;;7.73;5.15;;;;;;;15.48;66.34;97413.30;127956;1090;28324;-83
2021/08/13 00:44:44;;;;;;;7.83;5.23;;;;;;;15.52;66.09;97413.53;127986;1090;28089;-83
2021/08/13 00:47:16;;;;;;;6.93;5.33;;;;;;;15.49;65.88;97411.45;127985;1090;30427;-83
2021/08/13 00:49:47;;;;;;;7.80;5.50;;;;;;;15.41;66.20;97413.67;127969;1090;26254;-83
2021/08/13 00:52:19;;;;;;;8.78;5.38;;;;;;;15.32;66.28;97419.95;127909;1090;41932;-82
2021/08/13 00:54:51;;;;;;;8.38;5.98;;;;;;;15.24;66.46;97409.92;127980;1090;25026;-82
2021/08/13 00:57:23;;;;;;;7.65;5.75;;;;;;;15.23;66.63;97406.45;128019;1090;27099;-83
2021/08/13 00:59:54;;;;;;;8.23;5.90;;;;;;;15.24;66.59;97407.25;127925;1090;44999;-82
2021/08/13 01:02:26;;;;;;;8.03;5.35;;;;;;;15.24;66.77;97397.36;127939;1090;27661;-84
2021/08/13 01:04:58;;;;;;;5.65;4.65;;;;;;;15.22;66.70;97407.55;127979;1090;28663;-81
2021/08/13 01:07:29;;;;;;;5.68;4.28;;;;;;;15.25;66.71;97395.48;128023;1090;31098;-83
2021/08/13 01:10:00;;;;;;;7.15;4.95;;;;;;;15.21;66.56;97397.95;127976;1090;35873;-82
2021/08/13 01:12:43;;;;;;;7.13;5.23;;;;;;;15.11;66.72;97398.87;128017;1089;25813;-82
2021/08/13 01:15:16;;;;;;;7.45;4.55;;;;;;;15.09;66.65;97393.02;127937;1090;41841;-83
2021/08/13 01:18:01;;;;;;;5.53;4.60;;;;;;;15.03;67.07;97390.69;128021;1090;30519;-83
2021/08/13 01:21:02;;;;;;;7.50;5.35;;;;;;;15.07;67.04;97394.39;127941;1090;30756;-81
2021/08/13 01:23:40;;;;;;;8.83;5.08;;;;;;;14.97;67.02;97392.64;127985;1090;41694;-82
2021/08/13 01:26:12;;;;;;;6.33;4.80;;;;;;;14.94;67.13;97387.09;127969;1090;26325;-82
2021/08/13 01:28:56;;;;;;;6.98;5.50;;;;;;;14.88;67.29;97393.56;127978;1090;24635;-82
2021/08/13 01:31:29;;;;;;;7.85;5.75;;;;;;;14.88;67.52;97389.02;127999;1090;31209;-83
2021/08/13 01:34:03;;;;;;;7.98;5.68;;;;;;;14.93;67.47;97390.84;128007;1090;25338;-83
2021/08/13 01:36:37;;;;;;;8.13;5.40;;;;;;;14.99;67.34;97395.02;127988;1090;26223;-82
2021/08/13 01:39:09;;;;;;;8.47;5.40;;;;;;;15.01;67.44;97392.86;127967;1090;27669;-82
2021/08/13 01:41:42;;;;;;;6.73;5.18;;;;;;;15.02;67.48;97397.12;127965;1090;24456;-82
2021/08/13 01:44:14;;;;;;;6.05;5.15;;;;;;;15.05;67.55;97397.33;127972;1090;26609;-82
2021/08/13 01:46:48;;;;;;;6.55;5.08;;;;;;;15.08;67.44;97399.45;127952;1090;41511;-82
2021/08/13 01:49:23;;;;;;;8.65;5.35;;;;;;;15.08;67.47;97393.31;127946;1090;28779;-82
2021/08/13 01:51:55;;;;;;;8.00;5.15;;;;;;;14.92;67.40;97395.39;127956;1090;28247;-82
2021/08/13 01:54:27;;;;;;;6.40;5.40;;;;;;;14.87;67.56;97397.31;127939;1090;26420;-82
2021/08/13 01:56:59;;;;;;;7.70;6.00;;;;;;;14.85;67.93;97392.27;128051;1090;25250;-82
2021/08/13 01:59:34;;;;;;;8.38;5.55;;;;;;;14.80;67.93;97395.80;128057;1090;24940;-81
2021/08/13 02:02:06;;;;;;;6.90;5.15;;;;;;;14.77;67.80;97392.88;127937;1090;37169;-82
2021/08/13 02:04:40;;;;;;;6.55;5.08;;;;;;;14.75;67.90;97393.17;127924;1090;30912;-82
2021/08/13 02:07:13;;;;;;;7.38;4.90;;;;;;;14.76;68.12;97389.42;127977;1088;29874;-82
2021/08/13 02:09:45;;;;;;;8.55;4.95;;;;;;;14.80;68.11;97392.34;128001;1090;28513;-83
2021/08/13 02:12:17;;;;;;;5.55;4.65;;;;;;;14.84;68.37;97399.48;127940;1090;27145;-83
2021/08/13 02:14:48;;;;;;;9.23;5.43;;;;;;;14.80;68.17;97401.14;127909;1090;32963;-81
2021/08/13 02:17:23;;;;;;;7.83;5.75;;;;;;;14.74;68.17;97396.13;127941;1090;27706;-81
2021/08/13 02:20:00;;;;;;;7.33;5.70;;;;;;;14.62;68.49;97391.19;127913;1090;29356;-82
2021/08/13 02:22:31;;;;;;;7.73;5.45;;;;;;;14.61;68.64;97388.81;128037;1089;26701;-84
2021/08/13 02:25:03;;;;;;;6.95;5.70;;;;;;;14.60;68.57;97387.22;127972;1090;26464;-80
2021/08/13 02:27:35;;;;;;;8.45;5.73;;;;;;;14.58;68.70;97382.17;127985;1090;27516;-82
2021/08/13 02:30:09;;;;;;;10.23;5.88;;;;;;;14.51;68.85;97390.53;127962;1090;33613;-82
2021/08/13 02:32:41;;;;;;;7.35;5.60;;;;;;;14.52;69.24;97394.00;127945;1090;31653;-83
2021/08/13 02:35:13;;;;;;;6.60;5.35;;;;;;;14.54;69.45;97392.63;127927;1090;32210;-84
2021/08/13 02:37:51;;;;;;;7.58;5.10;;;;;;;14.59;69.17;97397.10;128046;1090;26963;-82
2021/08/13 02:40:28;;;;;;;7.83;5.55;;;;;;;14.64;69.09;97390.90;127920;1090;36674;-83
2021/08/13 02:43:06;;;;;;;7.78;5.90;;;;;;;14.67;69.21;97387.69;128022;1090;29303;-82
2021/08/13 02:45:40;;;;;;;7.50;5.90;;;;;;;14.69;69.19;97388.98;127940;1090;27843;-82
2021/08/13 02:48:11;;;;;;;8.48;6.08;;;;;;;14.73;69.34;97397.21;127947;1088;31340;-82
2021/08/13 02:50:45;;;;;;;7.58;5.25;;;;;;;14.73;69.31;97386.53;127967;1090;24478;-82
2021/08/13 02:53:21;;;;;;;8.15;6.05;;;;;;;14.70;69.33;97390.58;127938;1089;26342;-83
2021/08/13 02:55:58;;;;;;;7.90;5.70;;;;;;;14.67;69.46;97398.36;127944;1090;43292;-82
2021/08/13 02:58:40;;;;;;;9.55;5.70;;;;;;;14.59;69.76;97385.64;128141;1090;23516;-83
2021/08/13 03:01:16;;;;;;;7.73;5.80;;;;;;;14.51;69.75;97387.86;127947;1090;29132;-82
2021/08/13 03:03:49;;;;;;;9.35;6.23;;;;;;;14.42;70.08;97396.73;127973;1090;27190;-83
2021/08/13 03:06:23;;;;;;;9.48;6.68;;;;;;;14.38;70.04;97390.38;127932;1090;74840;-82
2021/08/13 03:08:56;;;;;;;8.03;6.18;;;;;;;14.32;70.35;97391.50;127964;1090;27320;-82
2021/08/13 03:11:29;;;;;;;8.43;6.38;;;;;;;14.27;70.38;97395.02;127979;1090;28813;-82
2021/08/13 03:14:02;;;;;;;8.48;6.15;;;;;;;14.23;70.60;97389.47;127996;1090;30668;-82
2021/08/13 03:16:34;;;;;;;7.25;5.78;;;;;;;14.27;70.76;97389.69;127997;1090;25304;-82
2021/08/13 03:19:06;;;;;;;7.40;5.60;;;;;;;14.26;70.90;97386.23;127976;1090;29043;-82
2021/08/13 03:21:39;;;;;;;9.80;5.60;;;;;;;14.28;70.94;97390.48;127972;1090;26371;-82
2021/08/13 03:24:11;;;;;;;7.20;5.73;;;;;;;14.36;71.10;97381.88;127921;1090;30339;-83
2021/08/13 03:26:44;;;;;;;9.15;6.15;;;;;;;14.44;70.97;97386.60;127922;1090;28161;-82
2021/08/13 03:29:16;;;;;;;9.30;6.38;;;;;;;14.49;71.13;97390.00;127900;1090;30446;-83
2021/08/13 03:31:48;;;;;;;8.93;6.08;;;;;;;14.55;71.06;97390.75;127983;1089;24352;-82
2021/08/13 03:34:20;;;;;;;8.90;5.80;;;;;;;14.63;70.97;97390.11;127967;1090;25127;-82
2021/08/13 03:36:51;;;;;;;9.98;6.00;;;;;;;14.72;70.82;97384.95;127953;1090;27503;-81
2021/08/13 03:39:22;;;;;;;7.63;5.88;;;;;;;14.79;70.82;97386.20;128015;1090;27595;-81
2021/08/13 03:41:54;;;;;;;9.03;5.73;;;;;;;14.87;70.63;97390.09;127924;1090;65178;-82
2021/08/13 03:44:25;;;;;;;7.03;5.10;;;;;;;14.93;70.57;97385.50;127961;1090;26634;-82
2021/08/13 03:46:56;;;;;;;7.83;5.95;;;;;;;14.99;70.56;97389.69;127953;1088;32805;-83
2021/08/13 03:49:27;;;;;;;8.30;6.05;;;;;;;15.05;70.17;97391.20;128050;1090;27071;-82
2021/08/13 03:52:02;;;;;;;8.73;6.00;;;;;;;15.11;70.32;97388.19;128054;1089;30682;-82
2021/08/13 03:54:33;;;;;;;9.05;6.08;;;;;;;15.14;69.99;97397.49;127952;1090;30585;-81
2021/08/13 03:57:05;;;;;;;7.30;5.70;;;;;;;15.18;69.99;97395.83;127998;1090;29612;-82
2021/08/13 03:59:37;;;;;;;8.03;6.18;;;;;;;15.21;69.83;97395.27;127963;1090;28464;-81
2021/08/13 04:02:08;;;;;;;9.00;5.68;;;;;;;15.23;69.61;97405.66;127925;1090;31207;-82
2021/08/13 04:04:39;;;;;;;7.80;5.63;;;;;;;15.24;69.65;97399.23;127917;1090;32247;-82
2021/08/13 04:07:10;;;;;;;7.53;5.58;;;;;;;15.25;69.88;97393.61;127906;1090;73400;-81
2021/08/13 04:09:42;;;;;;;6.77;5.00;;;;;;;15.28;69.57;97393.02;127968;1090;26492;-83
2021/08/13 04:12:14;;;;;;;8.85;5.88;;;;;;;15.31;69.50;97396.98;127915;1090;28922;-82
2021/08/13 04:14:45;;;;;;;8.48;6.00;;;;;;;15.30;69.91;97396.20;127934;1090;27762;-82
2021/08/13 04:17:17;;;;;;;9.95;5.88;;;;;;;15.47;69.93;97389.54;127983;1090;35124;-82
2021/08/13 04:19:50;;;;;;;7.53;6.00;;;;;;;15.66;69.67;97387.69;127943;1090;28516;-81
2021/08/13 04:22:21;;;;;;;8.03;5.50;;;;;;;15.79;69.54;97389.62;127964;1090;26424;-82
2021/08/13 04:24:54;;;;;;;7.40;5.40;;;;;;;15.91;69.18;97387.28;127953;1093;28649;-83
2021/08/13 04:27:25;;;;;;;8.78;5.70;;;;;;;15.98;69.11;97385.01;127957;1090;32188;-83
2021/08/13 04:29:56;;;;;;;9.63;5.73;;;;;;;16.12;68.88;97389.59;127968;1090;30817;-83
2021/08/13 04:32:28;;;;;;;7.68;5.83;;;;;;;16.24;68.38;97388.03;127948;1090;28294;-82
2021/08/13 04:35:00;;;;;;;8.33;6.03;;;;;;;16.36;68.41;97390.23;127977;1090;27995;-82
2021/08/13 04:37:31;;;;;;;6.10;5.33;;;;;;;16.69;68.13;97390.17;128074;1089;28041;-81
2021/08/13 04:40:03;;;;;;;8.95;5.33;;;;;;;17.31;67.50;97391.25;127979;1090;27571;-82
2021/08/13 04:42:34;;;;;;;8.00;5.95;;;;;;;18.51;67.03;97392.38;127972;1090;25206;-82
2021/08/13 04:45:06;;;;;;;6.35;4.70;;;;;;;19.82;65.34;97386.91;127926;1090;36041;-82
2021/08/13 04:47:38;;;;;;;6.73;5.13;;;;;;;20.37;63.63;97392.33;127931;1090;34590;-82
2021/08/13 04:50:10;;;;;;;6.00;4.80;;;;;;;20.59;61.12;97391.34;127948;1090;26831;-84
2021/08/13 04:52:49;;;;;;;6.45;4.68;;;;;;;19.98;60.62;97384.52;127933;1090;28415;-82
2021/08/13 04:55:22;;;;;;;7.65;5.30;;;;;;;19.42;60.79;97394.33;127971;1090;32619;-83
2021/08/13 04:57:55;;;;;;;7.15;5.25;;;;;;;18.94;60.72;97385.27;127945;1090;28951;-82
2021/08/13 05:00:26;;;;;;;8.18;5.58;;;;;;;18.58;61.14;97390.02;128015;1089;23333;-84
2021/08/13 05:02:57;;;;;;;7.50;5.30;;;;;;;18.35;61.66;97397.36;128040;1090;26879;-83
2021/08/13 05:05:29;;;;;;;6.95;4.83;;;;;;;18.20;62.02;97390.50;128026;1090;29074;-83
2021/08/13 05:08:00;;;;;;;7.63;5.10;;;;;;;18.29;61.98;97391.32;128045;1089;28041;-84
2021/08/13 05:10:32;;;;;;;5.50;4.58;;;;;;;18.56;62.28;97389.55;128005;1090;32636;-83
2021/08/13 05:13:03;;;;;;;7.53;4.93;;;;;;;19.02;61.99;97391.78;127961;1090;29681;-82
2021/08/13 05:15:34;;;;;;;5.93;4.60;;;;;;;19.55;60.89;97394.20;127931;1090;31024;-82
2021/08/13 05:18:07;;;;;;;7.73;5.23;;;;;;;20.13;59.66;97390.20;127990;1090;27579;-82
2021/08/13 05:20:38;;;;;;;5.35;4.85;;;;;;;20.47;59.24;97401.21;127948;1088;27109;-82
2021/08/13 05:23:10;;;;;;;5.55;4.33;;;;;;;20.85;57.81;97406.59;127937;1090;27752;-83
2021/08/13 05:25:41;;;;;;;6.77;4.73;;;;;;;21.25;57.13;97405.09;127920;1090;28166;-83
2021/08/13 05:28:13;;;;;;;7.38;4.40;;;;;;;21.44;55.71;97411.97;127907;1090;37762;-83
2021/08/13 05:30:44;;;;;;;6.63;4.78;;;;;;;21.37;55.59;97407.08;127984;1089;32066;-82
2021/08/13 05:33:15;;;;;;;6.00;4.97;;;;;;;21.53;55.37;97412.67;127924;1090;29642;-83
2021/08/13 05:35:47;;;;;;;6.55;4.48;;;;;;;21.92;54.58;97405.99;127922;1090;27722;-83
2021/08/13 05:38:18;;;;;;;5.13;4.00;;;;;;;22.26;53.71;97402.20;127983;1090;32285;-82
2021/08/13 05:40:49;;;;;;;6.55;4.60;;;;;;;22.78;52.75;97404.27;127939;1089;35087;-83
2021/08/13 05:43:21;;;;;;;5.68;4.53;;;;;;;23.26;52.34;97402.70;127945;1090;26172;-83
2021/08/13 05:45:52;;;;;;;4.95;3.98;;;;;;;23.53;50.33;97401.17;127949;1090;28211;-82
2021/08/13 05:48:24;;;;;;;4.93;3.93;;;;;;;23.58;48.67;97407.15;127940;1090;32154;-82
2021/08/13 05:50:55;;;;;;;6.33;4.05;;;;;;;23.97;49.41;97413.66;127913;1090;39284;-83
2021/08/13 05:53:26;;;;;;;4.85;4.10;;;;;;;24.23;47.81;97396.94;127907;1090;32967;-82
2021/08/13 05:55:58;;;;;;;5.23;4.23;;;;;;;23.63;47.46;97406.90;128029;1090;27537;-83
2021/08/13 05:58:29;;;;;;;5.10;4.05;;;;;;;23.89;48.24;97400.27;128021;1090;34491;-83
2021/08/13 06:01:02;;;;;;;4.98;4.08;;;;;;;24.73;48.13;97400.91;128017;1089;35952;-83
2021/08/13 06:03:33;;;;;;;4.53;4.00;;;;;;;25.51;47.26;97406.57;127933;1090;28512;-82
2021/08/13 06:06:05;;;;;;;4.85;3.70;;;;;;;26.12;45.31;97400.42;127875;1090;30606;-83
2021/08/13 06:08:36;;;;;;;4.75;3.75;;;;;;;26.64;44.41;97402.53;127967;1090;29865;-83
2021/08/13 06:11:08;;;;;;;5.63;4.10;;;;;;;27.26;43.87;97394.94;127913;1090;33989;-83
2021/08/13 06:13:39;;;;;;;6.83;4.08;;;;;;;27.54;42.57;97402.70;127912;1090;31432;-83
2021/08/13 06:16:10;;;;;;;4.30;3.73;;;;;;;27.88;42.87;97405.49;127934;1090;28135;-83
2021/08/13 06:18:42;;;;;;;3.55;3.20;;;;;;;27.96;42.01;97412.58;127892;1089;37856;-83
2021/08/13 06:21:14;;;;;;;4.40;3.28;;;;;;;28.26;41.03;97412.50;127930;1090;28172;-83
2021/08/13 06:23:45;;;;;;;4.90;3.43;;;;;;;28.66;39.68;97411.73;127945;1090;26956;-83
2021/08/13 06:26:16;;;;;;;4.63;3.65;;;;;;;28.48;39.72;97405.35;127924;1090;38855;-83
2021/08/13 06:28:48;;;;;;;6.10;3.90;;;;;;;28.51;39.39;97408.10;127883;1089;64094;-83
2021/08/13 06:31:21;;;;;;;5.38;3.35;;;;;;;28.98;39.49;97407.33;127950;1090;30457;-83
2021/08/13 06:33:53;;;;;;;4.63;3.80;;;;;;;28.84;37.42;97412.66;127899;1090;33704;-83
2021/08/13 06:36:24;;;;;;;4.58;3.50;;;;;;;28.02;38.33;97422.01;127926;1090;30173;-83
2021/08/13 06:38:56;;;;;;;4.93;3.85;;;;;;;27.44;39.02;97419.68;127894;1090;32925;-83
2021/08/13 06:41:27;;;;;;;5.70;3.70;;;;;;;27.00;39.40;97417.47;127943;1089;36275;-83
2021/08/13 06:43:58;;;;;;;5.98;3.80;;;;;;;26.80;40.32;97418.72;127925;1090;41520;-83
2021/08/13 06:46:30;;;;;;;5.13;3.70;;;;;;;26.56;39.82;97415.22;127985;1089;31602;-83
2021/08/13 06:49:02;;;;;;;4.70;3.65;;;;;;;26.41;40.48;97423.50;127999;1090;31948;-83
2021/08/13 06:51:34;;;;;;;5.33;4.00;;;;;;;26.86;40.95;97417.25;127891;1090;33460;-83
2021/08/13 06:54:05;;;;;;;5.58;4.30;;;;;;;27.83;39.73;97419.43;127933;1090;30820;-83
2021/08/13 06:56:37;;;;;;;4.58;3.60;;;;;;;28.40;39.90;97420.85;127923;1090;29920;-83
2021/08/13 06:59:08;;;;;;;4.33;3.35;;;;;;;29.32;38.27;97418.09;127928;1090;35285;-83
2021/08/13 07:01:39;;;;;;;4.80;3.48;;;;;;;29.73;37.40;97423.41;127910;1089;29759;-83
2021/08/13 07:04:11;;;;;;;4.95;3.30;;;;;;;29.80;37.49;97428.89;127894;1090;31529;-83
2021/08/13 07:06:42;;;;;;;3.55;2.85;;;;;;;30.52;37.60;97425.20;127889;1090;47600;-83
2021/08/13 07:09:14;;;;;;;5.48;3.45;;;;;;;31.34;37.46;97417.00;127937;1090;27147;-83
2021/08/13 07:11:45;;;;;;;3.58;3.10;;;;;;;32.25;35.69;97416.27;127924;1089;36992;-83
2021/08/13 07:14:16;;;;;;;5.33;3.50;;;;;;;33.38;35.18;97414.63;127919;1090;33626;-83
2021/08/13 07:16:48;;;;;;;3.35;3.03;;;;;;;32.93;32.75;97411.09;127925;1090;29818;-83
2021/08/13 07:19:28;;;;;;;5.78;3.43;;;;;;;32.13;32.23;97404.58;127918;1090;32577;-83
2021/08/13 07:21:59;;;;;;;4.83;3.80;;;;;;;31.61;33.53;97417.31;127992;1088;51491;-83
2021/08/13 07:24:30;;;;;;;3.35;3.00;;;;;;;32.46;32.43;97416.15;127974;1090;35378;-83
2021/08/13 07:27:02;;;;;;;4.15;3.28;;;;;;;33.09;32.57;97407.83;127987;1088;34734;-83
2021/08/13 07:29:33;;;;;;;3.55;3.25;;;;;;;33.51;32.79;97407.41;127946;1090;32702;-83
2021/08/13 07:32:05;;;;;;;4.43;3.37;;;;;;;32.71;32.60;97410.48;127873;1090;32158;-83
2021/08/13 07:34:36;;;;;;;4.00;3.23;;;;;;;31.87;32.78;97405.88;127904;1090;30941;-83
2021/08/13 07:37:08;;;;;;;4.40;3.48;;;;;;;31.85;33.12;97404.73;127905;1090;43248;-83
2021/08/13 07:39:39;;;;;;;4.05;3.18;;;;;;;32.74;33.38;97404.17;127892;1090;34710;-83
2021/08/13 07:42:11;;;;;;;3.80;2.80;;;;;;;34.61;33.70;97407.14;127906;1090;35458;-84
2021/08/13 07:44:42;;;;;;;5.50;2.88;;;;;;;36.42;32.09;97400.94;127926;1090;35521;-84
2021/08/13 07:47:15;;;;;;;3.28;2.80;;;;;;;37.79;29.04;97408.13;127912;1093;42685;-83
2021/08/13 07:49:46;;;;;;;5.48;2.95;;;;;;;37.89;28.87;97403.50;127934;1092;33325;-83
2021/08/13 07:52:18;;;;;;;3.28;2.73;;;;;;;38.73;28.59;97402.11;127927;1090;31700;-83
2021/08/13 07:54:49;;;;;;;4.60;2.75;;;;;;;38.27;26.98;97407.08;127876;1090;30039;-83
2021/08/13 07:57:21;;;;;;;4.10;3.18;;;;;;;38.30;27.08;97411.77;127898;1090;79841;-83
2021/08/13 07:59:53;;;;;;;5.13;3.10;;;;;;;38.97;25.74;97407.25;127954;1090;34225;-83
2021/08/13 08:02:25;;;;;;;4.38;2.70;;;;;;;39.14;25.25;97409.47;127946;1090;36452;-83
2021/08/13 08:04:56;;;;;;;3.38;2.90;;;;;;;37.15;24.74;97407.83;127964;1090;29771;-84
2021/08/13 08:07:28;;;;;;;3.60;2.90;;;;;;;36.42;27.34;97411.22;127908;1090;36130;-83
2021/08/13 08:09:59;;;;;;;5.38;2.93;;;;;;;36.83;27.34;97414.19;127985;1090;36400;-83
2021/08/13 08:12:31;;;;;;;3.77;3.03;;;;;;;36.52;27.02;97410.97;127996;1090;29513;-83
2021/08/13 08:15:03;;;;;;;3.67;2.97;;;;;;;37.24;27.83;97406.44;127986;1090;49602;-83
2021/08/13 08:17:34;;;;;;;4.98;3.25;;;;;;;37.63;25.58;97408.17;127966;1090;33243;-83
2021/08/13 08:20:07;;;;;;;3.60;2.83;;;;;;;37.50;27.39;97410.11;127894;1089;38910;-83
2021/08/13 08:22:39;;;;;;;3.88;2.95;;;;;;;38.69;26.93;97418.06;127947;1090;36349;-82
2021/08/13 08:25:12;;;;;;;4.38;3.13;;;;;;;38.63;25.45;97405.97;127888;1090;68124;-83
2021/08/13 08:27:44;;;;;;;4.75;3.00;;;;;;;38.30;26.85;97411.77;127927;1090;28706;-83
2021/08/13 08:30:17;;;;;;;3.88;3.00;;;;;;;38.90;27.42;97413.83;127936;1090;34687;-83
2021/08/13 08:32:50;;;;;;;3.60;2.93;;;;;;;38.31;25.98;97412.54;127907;1090;41649;-83
2021/08/13 08:35:22;;;;;;;4.58;3.20;;;;;;;36.41;25.89;97410.44;127919;1090;30921;-83
2021/08/13 08:37:55;;;;;;;4.73;3.15;;;;;;;35.01;27.53;97421.86;127961;1090;28236;-82
2021/08/13 08:40:30;;;;;;;5.83;3.73;;;;;;;34.33;28.31;97416.59;127877;1090;35167;-83
2021/08/13 08:43:04;;;;;;;4.65;3.50;;;;;;;33.27;29.09;97409.20;127988;1090;30996;-83
2021/08/13 08:45:38;;;;;;;6.03;3.23;;;;;;;32.71;30.50;97418.72;127910;1089;33658;-83
2021/08/13 08:48:11;;;;;;;5.08;3.03;;;;;;;32.08;31.13;97415.95;127932;1090;31999;-83
2021/08/13 08:50:46;;;;;;;6.83;3.60;;;;;;;31.57;31.43;97419.30;127951;1089;30404;-83
2021/08/13 08:53:24;;;;;;;4.45;3.33;;;;;;;31.36;32.55;97417.38;127968;1090;29344;-83
2021/08/13 08:55:57;;;;;;;3.98;3.30;;;;;;;31.08;32.24;97418.19;127952;1090;33402;-83
2021/08/13 08:58:30;;;;;;;5.25;3.60;;;;;;;30.90;32.49;97420.95;128001;1088;32273;-83
2021/08/13 09:01:03;;;;;;;13.03;3.55;;;;;;;30.75;32.73;97432.30;128036;1090;34399;-83
2021/08/13 09:03:35;;;;;;;4.65;2.65;;;;;;;30.62;33.52;97429.94;127949;1090;31890;-83
2021/08/13 09:06:07;;;;;;;6.33;3.10;;;;;;;30.51;33.81;97425.59;127907;1090;32535;-83
2021/08/13 09:08:39;;;;;;;3.30;2.90;;;;;;;30.34;34.38;97418.93;127999;1090;34895;-83
2021/08/13 09:11:12;;;;;;;4.28;3.15;;;;;;;30.12;34.02;97423.55;127922;1090;31884;-83
2021/08/13 09:14:00;;;;;;;4.38;3.18;;;;;;;29.74;34.99;97425.76;127897;1090;40137;-83
2021/08/13 09:16:32;;;;;;;5.15;3.65;;;;;;;29.44;34.77;97417.78;127994;1090;41348;-83
2021/08/13 09:19:05;;;;;;;3.48;2.88;;;;;;;28.95;35.45;97410.83;127928;1090;33457;-83
2021/08/13 09:21:38;;;;;;;4.45;3.25;;;;;;;28.42;35.97;97410.34;127886;1090;34659;-83
2021/08/13 09:24:14;;;;;;;3.58;3.08;;;;;;;28.31;37.44;97407.54;127951;1090;28094;-82
2021/08/13 09:26:46;;;;;;;4.95;3.20;;;;;;;28.44;36.98;97416.23;127965;1090;29957;-83
2021/08/13 09:29:21;;;;;;;8.25;3.40;;;;;;;28.59;37.33;97412.47;127902;1089;71893;-83
2021/08/13 09:31:54;;;;;;;5.50;3.45;;;;;;;28.24;37.61;97414.83;127910;1090;31165;-83
2021/08/13 09:34:32;;;;;;;4.40;3.50;;;;;;;27.97;37.39;97416.87;127922;1090;29819;-83
2021/08/13 09:37:04;;;;;;;4.28;3.28;;;;;;;27.79;37.10;97414.73;127924;1090;34431;-83
2021/08/13 09:39:36;;;;;;;3.80;3.10;;;;;;;27.36;38.19;97410.64;127894;1090;35422;-83
2021/08/13 09:42:13;;;;;;;5.48;3.83;;;;;;;27.32;39.70;97417.98;127985;1090;31402;-83
2021/08/13 09:44:59;;;;;;;6.80;3.85;;;;;;;27.17;38.89;97416.22;127949;1090;31674;-83
2021/08/13 09:47:43;;;;;;;5.00;3.63;;;;;;;26.86;39.63;97417.25;127995;1090;35815;-83
2021/08/13 09:50:18;;;;;;;7.08;3.83;;;;;;;26.83;40.13;97415.27;127915;1090;32693;-83
2021/08/13 09:53:10;;;;;;;7.98;3.78;;;;;;;26.73;41.01;97410.43;127989;1090;26954;-83
2021/08/13 09:55:43;;;;;;;4.90;3.80;;;;;;;26.89;41.36;97411.89;127960;1090;29381;-83
2021/08/13 09:58:29;;;;;;;5.50;3.50;;;;;;;26.92;41.44;97416.59;127922;1090;38207;-83
2021/08/13 10:01:00;;;;;;;5.45;3.35;;;;;;;26.75;40.99;97413.59;127998;1090;26983;-83
2021/08/13 10:03:32;;;;;;;6.30;3.50;;;;;;;26.67;40.63;97415.41;128014;1089;33945;-83
2021/08/13 10:06:07;;;;;;;6.03;3.70;;;;;;;26.86;42.06;97415.31;127899;1090;29513;-83
2021/08/13 10:08:45;;;;;;;4.08;3.33;;;;;;;26.90;40.98;97418.89;127917;1090;29853;-82
2021/08/13 10:11:17;;;;;;;3.90;3.10;;;;;;;26.95;41.65;97417.01;127885;1089;29053;-82
2021/08/13 10:13:48;;;;;;;4.98;3.68;;;;;;;26.79;41.24;97415.22;127940;1090;30865;-83
2021/08/13 10:16:25;;;;;;;6.08;3.25;;;;;;;26.55;41.72;97416.37;127921;1090;28516;-82
2021/08/13 10:18:58;;;;;;;5.20;3.73;;;;;;;26.61;42.00;97423.09;127945;1090;29529;-83
2021/08/13 10:21:30;;;;;;;4.63;3.40;;;;;;;26.69;40.52;97423.20;128004;1090;29759;-82
2021/08/13 10:24:03;;;;;;;5.93;3.73;;;;;;;26.71;40.87;97418.96;127977;1090;31178;-83
2021/08/13 10:26:35;;;;;;;4.35;3.58;;;;;;;26.81;40.80;97409.41;127921;1090;34212;-82
2021/08/13 10:29:07;;;;;;;5.25;3.53;;;;;;;26.84;40.77;97411.39;127950;1088;34610;-82
2021/08/13 10:31:39;;;;;;;5.70;3.75;;;;;;;26.90;40.62;97409.95;127911;1090;35767;-82
2021/08/13 10:34:11;;;;;;;5.08;3.60;;;;;;;26.99;41.45;97409.67;127975;1090;28362;-83
2021/08/13 10:36:44;;;;;;;5.28;3.90;;;;;;;26.93;40.99;97415.44;127939;1090;27492;-83
2021/08/13 10:39:17;;;;;;;5.83;3.80;;;;;;;27.02;41.20;97409.75;127936;1090;31399;-83
2021/08/13 10:41:52;;;;;;;5.38;3.70;;;;;;;26.93;41.21;97411.94;127951;1090;28180;-83
2021/08/13 10:44:28;;;;;;;6.53;3.83;;;;;;;26.54;41.58;97406.64;127885;1090;31650;-83
2021/08/13 10:47:03;;;;;;;6.15;4.18;;;;;;;26.52;42.51;97403.50;128026;1090;36797;-82
2021/08/13 10:49:36;;;;;;;4.45;3.53;;;;;;;26.59;42.57;97398.16;127925;1090;29893;-82
2021/08/13 10:52:09;;;;;;;5.85;3.85;;;;;;;26.68;42.92;97399.87;127940;1090;40782;-83
2021/08/13 10:54:42;;;;;;;4.83;3.80;;;;;;;26.67;42.41;97407.24;127929;1090;31391;-82
2021/08/13 10:57:15;;;;;;;7.45;3.75;;;;;;;26.66;42.72;97410.33;127941;1090;28053;-82
2021/08/13 10:59:59;;;;;;;5.73;3.40;;;;;;;26.58;42.26;97412.92;127928;1090;29802;-83
2021/08/13 11:02:30;;;;;;;5.13;3.80;;;;;;;26.58;42.88;97412.13;128040;1090;35958;-83
2021/08/13 11:05:02;;;;;;;5.88;3.90;;;;;;;26.83;42.84;97407.10;127994;1090;32812;-83
2021/08/13 11:08:01;;;;;;;7.00;4.05;;;;;;;26.97;43.37;97399.16;128002;1090;27229;-82
2021/08/13 11:10:58;;;;;;;5.33;3.95;;;;;;;27.03;43.02;97402.40;128007;1090;27331;-83
2021/08/13 11:13:38;;;;;;;6.58;4.18;;;;;;;27.01;43.23;97400.02;127990;1090;27586;-83
2021/08/13 11:16:21;;;;;;;;;;;;;;;27.02;43.24;97390.70;127996;1090;28638;-82
2021/08/13 11:18:59;;;;;;;6.83;3.58;;;;;;;27.14;42.83;97389.70;127965;1089;31724;-82
2021/08/13 11:21:37;;;;;;;4.77;3.83;;;;;;;27.22;42.88;97388.67;128002;1090;25114;-82
2021/08/13 11:24:12;;;;;;;5.23;3.90;;;;;;;27.28;42.77;97384.45;127942;1090;28985;-82
2021/08/13 11:27:18;;;;;;;8.18;4.10;;;;;;;27.33;42.77;97386.09;128021;1090;29331;-82
2021/08/13 11:29:49;;;;;;;6.20;3.83;;;;;;;27.37;43.30;97381.47;127987;1090;22793;-84
2021/08/13 11:32:34;;;;;;;4.85;3.70;;;;;;;27.45;43.87;97378.48;127914;1090;31357;-82
2021/08/13 11:35:10;;;;;;;6.50;4.08;;;;;;;27.54;43.82;97378.19;127943;1090;27878;-81
2021/08/13 11:37:53;;;;;;;7.78;4.38;;;;;;;27.40;42.87;97380.73;127991;1090;44118;-83
2021/08/13 11:40:50;;;;;;;4.83;3.68;;;;;;;27.15;42.70;97370.28;127974;1090;27200;-82
2021/08/13 11:43:22;;;;;;;5.73;4.10;;;;;;;27.02;43.28;97373.59;127995;1090;26980;-83
2021/08/13 11:45:55;;;;;;;6.18;3.93;;;;;;;26.96;43.61;97381.27;127944;1090;27784;-83
2021/08/13 11:48:34;;;;;;;10.05;4.38;;;;;;;26.85;42.92;97377.59;127921;1089;29999;-82
2021/08/13 11:51:12;;;;;;;5.78;3.80;;;;;;;26.76;43.02;97375.14;127936;1090;28340;-83
2021/08/13 11:53:44;;;;;;;4.85;3.80;;;;;;;26.66;43.02;97377.69;127919;1090;31702;-82